sensor_id;sensor_type;location;lat;lon;timestamp;P1;durP1;ratioP1;P2;durP2;ratioP2
58137;SDS011;43955;47.362;18.930;2023-11-18T00:00:05;9.05;;;4.55;;
58137;SDS011;43955;47.362;18.930;2023-11-18T00:02:58;7.53;;;4.15;;
58137;SDS011;43955;47.362;18.930;2023-11-18T00:05:26;6.45;;;4.07;;
58137;SDS011;43955;47.362;18.930;2023-11-18T00:07:54;7.05;;;4.60;;
58137;SDS011;43955;47.362;18.930;2023-11-18T00:10:22;6.82;;;3.85;;
58137;SDS011;43955;47.362;18.930;2023-11-18T00:12:50;9.88;;;4.30;;
58137;SDS011;43955;47.362;18.930;2023-11-18T00:15:18;6.25;;;4.25;;
58137;SDS011;43955;47.362;18.930;2023-11-18T00:17:47;6.70;;;4.30;;
58137;SDS011;43955;47.362;18.930;2023-11-18T00:20:14;7.55;;;4.45;;
58137;SDS011;43955;47.362;18.930;2023-11-18T00:22:43;6.80;;;4.10;;
58137;SDS011;43955;47.362;18.930;2023-11-18T00:25:11;6.53;;;4.05;;
58137;SDS011;43955;47.362;18.930;2023-11-18T00:27:41;7.10;;;4.50;;
58137;SDS011;43955;47.362;18.930;2023-11-18T00:30:10;8.23;;;4.90;;
58137;SDS011;43955;47.362;18.930;2023-11-18T00:32:40;7.82;;;4.95;;
58137;SDS011;43955;47.362;18.930;2023-11-18T00:35:08;7.30;;;4.05;;
58137;SDS011;43955;47.362;18.930;2023-11-18T00:37:37;5.78;;;3.70;;
58137;SDS011;43955;47.362;18.930;2023-11-18T00:40:05;8.35;;;4.40;;
58137;SDS011;43955;47.362;18.930;2023-11-18T00:42:37;7.25;;;4.12;;
58137;SDS011;43955;47.362;18.930;2023-11-18T00:45:07;6.45;;;3.67;;
58137;SDS011;43955;47.362;18.930;2023-11-18T00:47:35;7.22;;;4.57;;
58137;SDS011;43955;47.362;18.930;2023-11-18T00:50:02;7.30;;;4.30;;
58137;SDS011;43955;47.362;18.930;2023-11-18T00:52:33;7.70;;;4.15;;
58137;SDS011;43955;47.362;18.930;2023-11-18T00:55:01;7.43;;;4.20;;
58137;SDS011;43955;47.362;18.930;2023-11-18T00:57:30;8.52;;;4.32;;
58137;SDS011;43955;47.362;18.930;2023-11-18T00:59:58;7.97;;;4.07;;
58137;SDS011;43955;47.362;18.930;2023-11-18T01:02:25;5.35;;;3.40;;
58137;SDS011;43955;47.362;18.930;2023-11-18T01:04:53;6.37;;;3.90;;
58137;SDS011;43955;47.362;18.930;2023-11-18T01:07:20;6.90;;;4.05;;
58137;SDS011;43955;47.362;18.930;2023-11-18T01:09:48;6.00;;;3.80;;
58137;SDS011;43955;47.362;18.930;2023-11-18T01:12:16;6.68;;;3.95;;
58137;SDS011;43955;47.362;18.930;2023-11-18T01:14:43;7.78;;;3.75;;
58137;SDS011;43955;47.362;18.930;2023-11-18T01:17:11;5.82;;;3.85;;
58137;SDS011;43955;47.362;18.930;2023-11-18T01:19:39;8.52;;;4.55;;
58137;SDS011;43955;47.362;18.930;2023-11-18T01:22:07;5.65;;;3.67;;
58137;SDS011;43955;47.362;18.930;2023-11-18T01:24:35;5.32;;;3.40;;
58137;SDS011;43955;47.362;18.930;2023-11-18T01:27:03;6.35;;;3.58;;
58137;SDS011;43955;47.362;18.930;2023-11-18T01:29:31;6.68;;;3.92;;
58137;SDS011;43955;47.362;18.930;2023-11-18T01:32:00;5.82;;;3.87;;
58137;SDS011;43955;47.362;18.930;2023-11-18T01:34:28;7.18;;;3.95;;
58137;SDS011;43955;47.362;18.930;2023-11-18T01:36:56;6.70;;;3.22;;
58137;SDS011;43955;47.362;18.930;2023-11-18T01:39:24;6.62;;;3.78;;
58137;SDS011;43955;47.362;18.930;2023-11-18T01:41:53;5.82;;;3.37;;
58137;SDS011;43955;47.362;18.930;2023-11-18T01:44:22;6.43;;;3.37;;
58137;SDS011;43955;47.362;18.930;2023-11-18T01:46:52;5.72;;;3.67;;
58137;SDS011;43955;47.362;18.930;2023-11-18T01:49:21;6.60;;;3.35;;
58137;SDS011;43955;47.362;18.930;2023-11-18T01:51:50;8.00;;;3.80;;
58137;SDS011;43955;47.362;18.930;2023-11-18T01:54:23;6.65;;;3.60;;
58137;SDS011;43955;47.362;18.930;2023-11-18T01:56:51;7.45;;;3.55;;
58137;SDS011;43955;47.362;18.930;2023-11-18T01:59:21;5.68;;;3.25;;
58137;SDS011;43955;47.362;18.930;2023-11-18T02:01:50;5.10;;;3.72;;
58137;SDS011;43955;47.362;18.930;2023-11-18T02:04:20;6.35;;;3.53;;
58137;SDS011;43955;47.362;18.930;2023-11-18T02:06:49;6.25;;;3.70;;
58137;SDS011;43955;47.362;18.930;2023-11-18T02:09:17;5.10;;;3.37;;
58137;SDS011;43955;47.362;18.930;2023-11-18T02:14:44;5.78;;;3.30;;
58137;SDS011;43955;47.362;18.930;2023-11-18T02:17:14;6.30;;;3.25;;
58137;SDS011;43955;47.362;18.930;2023-11-18T02:19:42;5.72;;;3.42;;
58137;SDS011;43955;47.362;18.930;2023-11-18T02:22:11;7.25;;;4.07;;
58137;SDS011;43955;47.362;18.930;2023-11-18T02:24:40;5.12;;;3.33;;
58137;SDS011;43955;47.362;18.930;2023-11-18T02:27:08;4.43;;;2.97;;
58137;SDS011;43955;47.362;18.930;2023-11-18T02:29:44;5.95;;;3.60;;
58137;SDS011;43955;47.362;18.930;2023-11-18T02:35:10;6.28;;;3.12;;
58137;SDS011;43955;47.362;18.930;2023-11-18T02:37:42;6.10;;;2.90;;
58137;SDS011;43955;47.362;18.930;2023-11-18T02:40:12;7.40;;;3.55;;
58137;SDS011;43955;47.362;18.930;2023-11-18T02:42:48;5.20;;;3.30;;
58137;SDS011;43955;47.362;18.930;2023-11-18T02:45:23;5.62;;;3.20;;
58137;SDS011;43955;47.362;18.930;2023-11-18T02:47:51;6.85;;;3.35;;
58137;SDS011;43955;47.362;18.930;2023-11-18T02:50:18;7.32;;;3.03;;
58137;SDS011;43955;47.362;18.930;2023-11-18T02:52:47;5.25;;;3.10;;
58137;SDS011;43955;47.362;18.930;2023-11-18T02:55:15;5.62;;;3.10;;
58137;SDS011;43955;47.362;18.930;2023-11-18T02:57:43;5.75;;;3.50;;
58137;SDS011;43955;47.362;18.930;2023-11-18T03:00:11;5.90;;;3.58;;
58137;SDS011;43955;47.362;18.930;2023-11-18T03:02:46;5.72;;;3.20;;
58137;SDS011;43955;47.362;18.930;2023-11-18T03:05:15;6.07;;;3.50;;
58137;SDS011;43955;47.362;18.930;2023-11-18T03:07:46;5.28;;;3.67;;
58137;SDS011;43955;47.362;18.930;2023-11-18T03:10:17;5.47;;;3.22;;
58137;SDS011;43955;47.362;18.930;2023-11-18T03:12:50;5.75;;;3.47;;
58137;SDS011;43955;47.362;18.930;2023-11-18T03:15:22;6.85;;;3.33;;
58137;SDS011;43955;47.362;18.930;2023-11-18T03:17:50;6.10;;;3.47;;
58137;SDS011;43955;47.362;18.930;2023-11-18T03:20:22;8.05;;;3.40;;
58137;SDS011;43955;47.362;18.930;2023-11-18T03:22:51;6.00;;;3.03;;
58137;SDS011;43955;47.362;18.930;2023-11-18T03:25:21;6.90;;;3.72;;
58137;SDS011;43955;47.362;18.930;2023-11-18T03:27:50;6.60;;;3.22;;
58137;SDS011;43955;47.362;18.930;2023-11-18T03:30:17;5.30;;;3.28;;
58137;SDS011;43955;47.362;18.930;2023-11-18T03:32:47;5.07;;;3.60;;
58137;SDS011;43955;47.362;18.930;2023-11-18T03:35:15;5.85;;;3.33;;
58137;SDS011;43955;47.362;18.930;2023-11-18T03:37:46;5.82;;;3.20;;
58137;SDS011;43955;47.362;18.930;2023-11-18T03:40:13;5.95;;;3.53;;
58137;SDS011;43955;47.362;18.930;2023-11-18T03:42:42;4.95;;;2.67;;
58137;SDS011;43955;47.362;18.930;2023-11-18T03:45:09;6.72;;;3.12;;
58137;SDS011;43955;47.362;18.930;2023-11-18T03:47:57;6.53;;;3.65;;
58137;SDS011;43955;47.362;18.930;2023-11-18T03:50:24;5.55;;;3.15;;
58137;SDS011;43955;47.362;18.930;2023-11-18T03:52:52;4.15;;;3.03;;
58137;SDS011;43955;47.362;18.930;2023-11-18T03:55:22;6.43;;;3.20;;
58137;SDS011;43955;47.362;18.930;2023-11-18T03:57:49;7.05;;;3.85;;
58137;SDS011;43955;47.362;18.930;2023-11-18T04:00:19;5.12;;;2.97;;
58137;SDS011;43955;47.362;18.930;2023-11-18T04:02:47;5.22;;;3.30;;
58137;SDS011;43955;47.362;18.930;2023-11-18T04:05:15;5.00;;;3.37;;
58137;SDS011;43955;47.362;18.930;2023-11-18T04:07:42;5.32;;;3.15;;
58137;SDS011;43955;47.362;18.930;2023-11-18T04:10:10;6.18;;;3.60;;
58137;SDS011;43955;47.362;18.930;2023-11-18T04:12:38;5.07;;;3.20;;
58137;SDS011;43955;47.362;18.930;2023-11-18T04:15:06;6.20;;;3.17;;
58137;SDS011;43955;47.362;18.930;2023-11-18T04:17:34;5.72;;;3.28;;
58137;SDS011;43955;47.362;18.930;2023-11-18T04:20:02;5.10;;;3.40;;
58137;SDS011;43955;47.362;18.930;2023-11-18T04:22:33;4.75;;;3.03;;
58137;SDS011;43955;47.362;18.930;2023-11-18T04:25:01;4.15;;;2.80;;
58137;SDS011;43955;47.362;18.930;2023-11-18T04:27:28;4.78;;;2.70;;
58137;SDS011;43955;47.362;18.930;2023-11-18T04:29:56;5.70;;;3.58;;
58137;SDS011;43955;47.362;18.930;2023-11-18T04:32:24;5.40;;;3.28;;
58137;SDS011;43955;47.362;18.930;2023-11-18T04:34:51;4.93;;;3.50;;
58137;SDS011;43955;47.362;18.930;2023-11-18T04:37:19;4.60;;;2.70;;
58137;SDS011;43955;47.362;18.930;2023-11-18T04:39:47;5.72;;;3.10;;
58137;SDS011;43955;47.362;18.930;2023-11-18T04:42:14;3.58;;;2.80;;
58137;SDS011;43955;47.362;18.930;2023-11-18T04:44:43;5.90;;;3.15;;
58137;SDS011;43955;47.362;18.930;2023-11-18T04:47:10;4.72;;;2.85;;
58137;SDS011;43955;47.362;18.930;2023-11-18T04:49:38;5.93;;;2.85;;
58137;SDS011;43955;47.362;18.930;2023-11-18T04:52:06;6.20;;;2.90;;
58137;SDS011;43955;47.362;18.930;2023-11-18T04:54:33;8.82;;;3.30;;
58137;SDS011;43955;47.362;18.930;2023-11-18T04:57:01;4.80;;;2.58;;
58137;SDS011;43955;47.362;18.930;2023-11-18T04:59:29;3.92;;;2.65;;
58137;SDS011;43955;47.362;18.930;2023-11-18T05:01:58;4.20;;;2.62;;
58137;SDS011;43955;47.362;18.930;2023-11-18T05:04:25;4.28;;;3.15;;
58137;SDS011;43955;47.362;18.930;2023-11-18T05:06:53;4.65;;;2.47;;
58137;SDS011;43955;47.362;18.930;2023-11-18T05:09:21;5.87;;;2.97;;
58137;SDS011;43955;47.362;18.930;2023-11-18T05:11:48;5.95;;;2.80;;
58137;SDS011;43955;47.362;18.930;2023-11-18T05:14:16;3.97;;;2.78;;
58137;SDS011;43955;47.362;18.930;2023-11-18T05:16:44;5.40;;;2.67;;
58137;SDS011;43955;47.362;18.930;2023-11-18T05:19:11;5.70;;;2.75;;
58137;SDS011;43955;47.362;18.930;2023-11-18T05:21:38;4.20;;;2.33;;
58137;SDS011;43955;47.362;18.930;2023-11-18T05:24:06;4.30;;;2.60;;
58137;SDS011;43955;47.362;18.930;2023-11-18T05:26:34;4.00;;;2.37;;
58137;SDS011;43955;47.362;18.930;2023-11-18T05:29:01;4.75;;;2.80;;
58137;SDS011;43955;47.362;18.930;2023-11-18T05:31:29;4.93;;;2.55;;
58137;SDS011;43955;47.362;18.930;2023-11-18T05:33:58;4.15;;;2.35;;
58137;SDS011;43955;47.362;18.930;2023-11-18T05:36:26;4.53;;;2.78;;
58137;SDS011;43955;47.362;18.930;2023-11-18T05:39:04;3.55;;;2.00;;
58137;SDS011;43955;47.362;18.930;2023-11-18T05:41:36;4.30;;;2.62;;
58137;SDS011;43955;47.362;18.930;2023-11-18T05:44:07;4.15;;;2.45;;
58137;SDS011;43955;47.362;18.930;2023-11-18T05:46:38;2.75;;;1.85;;
58137;SDS011;43955;47.362;18.930;2023-11-18T05:49:06;5.07;;;2.62;;
58137;SDS011;43955;47.362;18.930;2023-11-18T05:51:37;14.65;;;2.60;;
58137;SDS011;43955;47.362;18.930;2023-11-18T05:54:04;4.57;;;2.62;;
58137;SDS011;43955;47.362;18.930;2023-11-18T05:56:33;4.50;;;2.40;;
58137;SDS011;43955;47.362;18.930;2023-11-18T05:59:01;4.78;;;2.45;;
58137;SDS011;43955;47.362;18.930;2023-11-18T06:01:30;4.87;;;2.60;;
58137;SDS011;43955;47.362;18.930;2023-11-18T06:03:57;4.68;;;2.47;;
58137;SDS011;43955;47.362;18.930;2023-11-18T06:06:26;5.20;;;2.62;;
58137;SDS011;43955;47.362;18.930;2023-11-18T06:08:53;5.47;;;2.95;;
58137;SDS011;43955;47.362;18.930;2023-11-18T06:11:21;4.28;;;2.12;;
58137;SDS011;43955;47.362;18.930;2023-11-18T06:13:50;3.70;;;2.35;;
58137;SDS011;43955;47.362;18.930;2023-11-18T06:16:20;3.72;;;2.55;;
58137;SDS011;43955;47.362;18.930;2023-11-18T06:18:49;3.62;;;2.35;;
58137;SDS011;43955;47.362;18.930;2023-11-18T06:21:21;4.70;;;2.10;;
58137;SDS011;43955;47.362;18.930;2023-11-18T06:23:53;4.90;;;2.47;;
58137;SDS011;43955;47.362;18.930;2023-11-18T06:26:23;4.90;;;2.37;;
58137;SDS011;43955;47.362;18.930;2023-11-18T06:28:56;4.00;;;2.62;;
58137;SDS011;43955;47.362;18.930;2023-11-18T06:31:23;3.75;;;2.08;;
58137;SDS011;43955;47.362;18.930;2023-11-18T06:33:51;4.87;;;2.62;;
58137;SDS011;43955;47.362;18.930;2023-11-18T06:36:19;4.28;;;2.45;;
58137;SDS011;43955;47.362;18.930;2023-11-18T06:38:50;4.30;;;2.37;;
58137;SDS011;43955;47.362;18.930;2023-11-18T06:41:22;3.60;;;2.33;;
58137;SDS011;43955;47.362;18.930;2023-11-18T06:44:09;4.90;;;2.62;;
58137;SDS011;43955;47.362;18.930;2023-11-18T06:46:41;3.65;;;2.05;;
58137;SDS011;43955;47.362;18.930;2023-11-18T06:49:09;5.47;;;2.60;;
58137;SDS011;43955;47.362;18.930;2023-11-18T06:51:42;6.45;;;2.55;;
58137;SDS011;43955;47.362;18.930;2023-11-18T06:54:10;4.57;;;2.70;;
58137;SDS011;43955;47.362;18.930;2023-11-18T06:56:40;3.75;;;2.05;;
58137;SDS011;43955;47.362;18.930;2023-11-18T06:59:11;4.18;;;2.60;;
58137;SDS011;43955;47.362;18.930;2023-11-18T07:01:40;4.50;;;2.17;;
58137;SDS011;43955;47.362;18.930;2023-11-18T07:04:10;4.28;;;2.50;;
58137;SDS011;43955;47.362;18.930;2023-11-18T07:06:37;2.97;;;1.85;;
58137;SDS011;43955;47.362;18.930;2023-11-18T07:09:06;4.15;;;2.03;;
58137;SDS011;43955;47.362;18.930;2023-11-18T07:11:44;3.92;;;2.25;;
58137;SDS011;43955;47.362;18.930;2023-11-18T07:14:13;8.07;;;2.30;;
58137;SDS011;43955;47.362;18.930;2023-11-18T07:16:44;3.50;;;2.05;;
58137;SDS011;43955;47.362;18.930;2023-11-18T07:19:12;5.28;;;2.12;;
58137;SDS011;43955;47.362;18.930;2023-11-18T07:21:49;4.87;;;2.30;;
58137;SDS011;43955;47.362;18.930;2023-11-18T07:24:17;3.53;;;2.25;;
58137;SDS011;43955;47.362;18.930;2023-11-18T07:26:47;4.43;;;2.10;;
58137;SDS011;43955;47.362;18.930;2023-11-18T07:29:16;3.95;;;1.98;;
58137;SDS011;43955;47.362;18.930;2023-11-18T07:31:44;3.75;;;2.00;;
58137;SDS011;43955;47.362;18.930;2023-11-18T07:34:12;4.90;;;2.10;;
58137;SDS011;43955;47.362;18.930;2023-11-18T07:36:41;3.12;;;2.30;;
58137;SDS011;43955;47.362;18.930;2023-11-18T07:39:14;4.15;;;1.67;;
58137;SDS011;43955;47.362;18.930;2023-11-18T07:41:51;4.85;;;2.62;;
58137;SDS011;43955;47.362;18.930;2023-11-18T07:44:19;6.45;;;2.47;;
58137;SDS011;43955;47.362;18.930;2023-11-18T07:46:48;4.35;;;2.50;;
58137;SDS011;43955;47.362;18.930;2023-11-18T07:49:16;4.95;;;2.03;;
58137;SDS011;43955;47.362;18.930;2023-11-18T07:51:45;3.83;;;2.10;;
58137;SDS011;43955;47.362;18.930;2023-11-18T07:54:12;3.03;;;1.95;;
58137;SDS011;43955;47.362;18.930;2023-11-18T07:56:40;3.22;;;1.73;;
58137;SDS011;43955;47.362;18.930;2023-11-18T07:59:09;3.62;;;2.25;;
58137;SDS011;43955;47.362;18.930;2023-11-18T08:01:36;4.87;;;2.08;;
58137;SDS011;43955;47.362;18.930;2023-11-18T08:04:08;4.50;;;2.17;;
58137;SDS011;43955;47.362;18.930;2023-11-18T08:06:35;3.35;;;2.05;;
58137;SDS011;43955;47.362;18.930;2023-11-18T08:09:03;3.67;;;1.90;;
58137;SDS011;43955;47.362;18.930;2023-11-18T08:11:31;10.00;;;2.78;;
58137;SDS011;43955;47.362;18.930;2023-11-18T08:13:58;4.43;;;1.98;;
58137;SDS011;43955;47.362;18.930;2023-11-18T08:16:26;3.90;;;2.20;;
58137;SDS011;43955;47.362;18.930;2023-11-18T08:18:55;3.72;;;1.70;;
58137;SDS011;43955;47.362;18.930;2023-11-18T08:21:26;3.47;;;1.45;;
58137;SDS011;43955;47.362;18.930;2023-11-18T08:23:56;3.62;;;1.80;;
58137;SDS011;43955;47.362;18.930;2023-11-18T08:26:23;3.25;;;1.80;;
58137;SDS011;43955;47.362;18.930;2023-11-18T08:28:51;4.70;;;2.10;;
58137;SDS011;43955;47.362;18.930;2023-11-18T08:31:19;2.83;;;1.40;;
58137;SDS011;43955;47.362;18.930;2023-11-18T08:33:48;5.12;;;1.75;;
58137;SDS011;43955;47.362;18.930;2023-11-18T08:36:15;4.47;;;2.25;;
58137;SDS011;43955;47.362;18.930;2023-11-18T08:38:44;3.50;;;2.03;;
58137;SDS011;43955;47.362;18.930;2023-11-18T08:41:15;2.30;;;1.58;;
58137;SDS011;43955;47.362;18.930;2023-11-18T08:43:43;4.95;;;1.98;;
58137;SDS011;43955;47.362;18.930;2023-11-18T08:46:14;4.05;;;2.17;;
58137;SDS011;43955;47.362;18.930;2023-11-18T08:48:43;4.40;;;2.37;;
58137;SDS011;43955;47.362;18.930;2023-11-18T08:51:11;3.45;;;2.08;;
58137;SDS011;43955;47.362;18.930;2023-11-18T08:53:41;2.22;;;1.40;;
58137;SDS011;43955;47.362;18.930;2023-11-18T08:56:10;4.75;;;2.40;;
58137;SDS011;43955;47.362;18.930;2023-11-18T08:58:43;6.15;;;2.40;;
58137;SDS011;43955;47.362;18.930;2023-11-18T09:01:16;3.28;;;1.98;;
58137;SDS011;43955;47.362;18.930;2023-11-18T09:03:44;2.90;;;1.27;;
58137;SDS011;43955;47.362;18.930;2023-11-18T09:06:22;10.05;;;3.83;;
58137;SDS011;43955;47.362;18.930;2023-11-18T09:08:55;3.03;;;1.58;;
58137;SDS011;43955;47.362;18.930;2023-11-18T09:11:25;2.40;;;1.30;;
58137;SDS011;43955;47.362;18.930;2023-11-18T09:13:56;4.68;;;2.17;;
58137;SDS011;43955;47.362;18.930;2023-11-18T09:16:28;4.00;;;2.03;;
58137;SDS011;43955;47.362;18.930;2023-11-18T09:19:00;4.80;;;1.77;;
58137;SDS011;43955;47.362;18.930;2023-11-18T09:21:30;4.05;;;1.50;;
58137;SDS011;43955;47.362;18.930;2023-11-18T09:24:03;2.25;;;1.30;;
58137;SDS011;43955;47.362;18.930;2023-11-18T09:26:33;2.35;;;1.67;;
58137;SDS011;43955;47.362;18.930;2023-11-18T09:29:02;2.85;;;1.40;;
58137;SDS011;43955;47.362;18.930;2023-11-18T09:31:32;2.47;;;1.27;;
58137;SDS011;43955;47.362;18.930;2023-11-18T09:34:02;2.30;;;1.12;;
58137;SDS011;43955;47.362;18.930;2023-11-18T09:36:34;2.62;;;1.37;;
58137;SDS011;43955;47.362;18.930;2023-11-18T09:39:01;3.55;;;1.23;;
58137;SDS011;43955;47.362;18.930;2023-11-18T09:41:30;2.67;;;1.40;;
58137;SDS011;43955;47.362;18.930;2023-11-18T09:44:02;4.62;;;2.05;;
58137;SDS011;43955;47.362;18.930;2023-11-18T09:46:39;2.62;;;1.58;;
58137;SDS011;43955;47.362;18.930;2023-11-18T09:52:03;3.17;;;1.40;;
58137;SDS011;43955;47.362;18.930;2023-11-18T09:57:21;2.28;;;1.23;;
58137;SDS011;43955;47.362;18.930;2023-11-18T10:02:53;3.28;;;1.65;;
58137;SDS011;43955;47.362;18.930;2023-11-18T10:05:22;2.92;;;1.35;;
58137;SDS011;43955;47.362;18.930;2023-11-18T10:07:54;4.68;;;1.40;;
58137;SDS011;43955;47.362;18.930;2023-11-18T10:10:21;3.92;;;1.52;;
58137;SDS011;43955;47.362;18.930;2023-11-18T10:12:50;1.90;;;1.10;;
58137;SDS011;43955;47.362;18.930;2023-11-18T10:15:25;3.03;;;1.58;;
58137;SDS011;43955;47.362;18.930;2023-11-18T10:17:53;4.00;;;1.45;;
58137;SDS011;43955;47.362;18.930;2023-11-18T10:23:09;4.22;;;1.98;;
58137;SDS011;43955;47.362;18.930;2023-11-18T10:25:51;3.17;;;1.50;;
58137;SDS011;43955;47.362;18.930;2023-11-18T10:30:56;2.75;;;1.58;;
58137;SDS011;43955;47.362;18.930;2023-11-18T10:33:31;3.37;;;1.40;;
58137;SDS011;43955;47.362;18.930;2023-11-18T10:36:01;2.30;;;1.30;;
58137;SDS011;43955;47.362;18.930;2023-11-18T10:38:32;3.25;;;1.70;;
58137;SDS011;43955;47.362;18.930;2023-11-18T10:41:10;2.72;;;1.80;;
58137;SDS011;43955;47.362;18.930;2023-11-18T10:43:39;3.40;;;2.08;;
58137;SDS011;43955;47.362;18.930;2023-11-18T10:46:09;2.47;;;1.50;;
58137;SDS011;43955;47.362;18.930;2023-11-18T10:48:43;7.00;;;2.30;;
58137;SDS011;43955;47.362;18.930;2023-11-18T10:51:12;2.35;;;1.40;;
58137;SDS011;43955;47.362;18.930;2023-11-18T10:53:43;3.20;;;1.55;;
58137;SDS011;43955;47.362;18.930;2023-11-18T10:56:23;3.33;;;2.42;;
58137;SDS011;43955;47.362;18.930;2023-11-18T10:58:57;15.77;;;14.32;;
58137;SDS011;43955;47.362;18.930;2023-11-18T11:01:27;6.47;;;4.12;;
58137;SDS011;43955;47.362;18.930;2023-11-18T11:03:56;7.78;;;6.18;;
58137;SDS011;43955;47.362;18.930;2023-11-18T11:06:25;4.65;;;3.15;;
58137;SDS011;43955;47.362;18.930;2023-11-18T11:08:53;18.50;;;16.73;;
58137;SDS011;43955;47.362;18.930;2023-11-18T11:11:22;3.72;;;2.75;;
58137;SDS011;43955;47.362;18.930;2023-11-18T11:13:55;58.70;;;45.40;;
58137;SDS011;43955;47.362;18.930;2023-11-18T11:16:28;219.73;;;122.37;;
58137;SDS011;43955;47.362;18.930;2023-11-18T11:19:05;130.63;;;79.35;;
58137;SDS011;43955;47.362;18.930;2023-11-18T11:21:37;60.60;;;41.97;;
58137;SDS011;43955;47.362;18.930;2023-11-18T11:24:20;14.55;;;13.00;;
58137;SDS011;43955;47.362;18.930;2023-11-18T11:27:10;10.90;;;9.30;;
58137;SDS011;43955;47.362;18.930;2023-11-18T11:29:51;8.43;;;6.10;;
58137;SDS011;43955;47.362;18.930;2023-11-18T11:33:03;3.72;;;2.25;;
58137;SDS011;43955;47.362;18.930;2023-11-18T11:35:32;4.78;;;3.78;;
58137;SDS011;43955;47.362;18.930;2023-11-18T11:38:01;3.08;;;1.58;;
58137;SDS011;43955;47.362;18.930;2023-11-18T11:40:38;3.78;;;1.73;;
58137;SDS011;43955;47.362;18.930;2023-11-18T11:43:06;3.17;;;1.73;;
58137;SDS011;43955;47.362;18.930;2023-11-18T11:45:37;4.75;;;2.12;;
58137;SDS011;43955;47.362;18.930;2023-11-18T11:48:06;4.87;;;1.60;;
58137;SDS011;43955;47.362;18.930;2023-11-18T11:50:48;6.80;;;1.92;;
58137;SDS011;43955;47.362;18.930;2023-11-18T11:53:53;10.38;;;2.50;;
58137;SDS011;43955;47.362;18.930;2023-11-18T11:56:39;7.43;;;2.30;;
58137;SDS011;43955;47.362;18.930;2023-11-18T11:59:17;6.20;;;2.80;;
58137;SDS011;43955;47.362;18.930;2023-11-18T12:02:03;5.35;;;1.87;;
58137;SDS011;43955;47.362;18.930;2023-11-18T12:04:35;5.37;;;1.60;;
58137;SDS011;43955;47.362;18.930;2023-11-18T12:07:05;9.52;;;1.33;;
58137;SDS011;43955;47.362;18.930;2023-11-18T12:09:46;2.40;;;1.75;;
58137;SDS011;43955;47.362;18.930;2023-11-18T12:12:17;3.50;;;1.75;;
58137;SDS011;43955;47.362;18.930;2023-11-18T12:14:50;3.95;;;2.50;;
58137;SDS011;43955;47.362;18.930;2023-11-18T12:17:19;2.70;;;1.60;;
58137;SDS011;43955;47.362;18.930;2023-11-18T12:19:50;3.45;;;1.75;;
58137;SDS011;43955;47.362;18.930;2023-11-18T12:22:23;2.40;;;1.17;;
58137;SDS011;43955;47.362;18.930;2023-11-18T12:30:37;8.00;;;5.47;;
58137;SDS011;43955;47.362;18.930;2023-11-18T12:33:06;3.20;;;2.00;;
58137;SDS011;43955;47.362;18.930;2023-11-18T12:43:15;6.60;;;3.83;;
58137;SDS011;43955;47.362;18.930;2023-11-18T12:48:33;7.20;;;5.97;;
58137;SDS011;43955;47.362;18.930;2023-11-18T12:51:05;4.40;;;4.00;;
58137;SDS011;43955;47.362;18.930;2023-11-18T12:53:37;4.12;;;1.70;;
58137;SDS011;43955;47.362;18.930;2023-11-18T12:56:05;1.90;;;1.10;;
58137;SDS011;43955;47.362;18.930;2023-11-18T12:58:33;3.33;;;1.45;;
58137;SDS011;43955;47.362;18.930;2023-11-18T13:01:01;3.85;;;1.55;;
58137;SDS011;43955;47.362;18.930;2023-11-18T13:03:33;2.37;;;1.52;;
58137;SDS011;43955;47.362;18.930;2023-11-18T13:06:03;2.70;;;1.60;;
58137;SDS011;43955;47.362;18.930;2023-11-18T13:08:33;3.05;;;1.10;;
58137;SDS011;43955;47.362;18.930;2023-11-18T13:11:01;4.55;;;1.67;;
58137;SDS011;43955;47.362;18.930;2023-11-18T13:13:33;2.67;;;1.17;;
58137;SDS011;43955;47.362;18.930;2023-11-18T13:16:01;2.80;;;1.50;;
58137;SDS011;43955;47.362;18.930;2023-11-18T13:18:40;2.60;;;0.98;;
58137;SDS011;43955;47.362;18.930;2023-11-18T13:21:13;4.47;;;1.80;;
58137;SDS011;43955;47.362;18.930;2023-11-18T13:23:44;5.82;;;1.40;;
58137;SDS011;43955;47.362;18.930;2023-11-18T13:26:14;3.28;;;1.30;;
58137;SDS011;43955;47.362;18.930;2023-11-18T13:28:43;3.50;;;1.62;;
58137;SDS011;43955;47.362;18.930;2023-11-18T13:31:13;6.18;;;1.67;;
58137;SDS011;43955;47.362;18.930;2023-11-18T13:33:47;3.30;;;1.27;;
58137;SDS011;43955;47.362;18.930;2023-11-18T13:36:19;3.22;;;1.80;;
58137;SDS011;43955;47.362;18.930;2023-11-18T13:38:48;3.08;;;2.20;;
58137;SDS011;43955;47.362;18.930;2023-11-18T13:41:29;4.93;;;2.45;;
58137;SDS011;43955;47.362;18.930;2023-11-18T13:43:59;3.55;;;1.50;;
58137;SDS011;43955;47.362;18.930;2023-11-18T13:46:30;3.08;;;1.60;;
58137;SDS011;43955;47.362;18.930;2023-11-18T13:49:00;4.22;;;1.52;;
58137;SDS011;43955;47.362;18.930;2023-11-18T13:51:28;6.87;;;4.30;;
58137;SDS011;43955;47.362;18.930;2023-11-18T13:53:57;17.37;;;11.65;;
58137;SDS011;43955;47.362;18.930;2023-11-18T13:56:27;9.52;;;2.03;;
58137;SDS011;43955;47.362;18.930;2023-11-18T13:58:57;5.35;;;4.40;;
58137;SDS011;43955;47.362;18.930;2023-11-18T14:01:25;4.97;;;3.05;;
58137;SDS011;43955;47.362;18.930;2023-11-18T14:03:54;2.70;;;1.30;;
58137;SDS011;43955;47.362;18.930;2023-11-18T14:06:22;3.95;;;1.80;;
58137;SDS011;43955;47.362;18.930;2023-11-18T14:08:50;3.05;;;1.42;;
58137;SDS011;43955;47.362;18.930;2023-11-18T14:11:18;4.20;;;3.05;;
58137;SDS011;43955;47.362;18.930;2023-11-18T14:13:47;4.07;;;1.75;;
58137;SDS011;43955;47.362;18.930;2023-11-18T14:16:14;2.28;;;1.58;;
58137;SDS011;43955;47.362;18.930;2023-11-18T14:18:44;4.30;;;3.40;;
58137;SDS011;43955;47.362;18.930;2023-11-18T14:21:12;4.57;;;2.78;;
58137;SDS011;43955;47.362;18.930;2023-11-18T14:23:41;6.10;;;1.83;;
58137;SDS011;43955;47.362;18.930;2023-11-18T14:26:08;2.87;;;1.77;;
58137;SDS011;43955;47.362;18.930;2023-11-18T14:28:36;7.90;;;3.85;;
58137;SDS011;43955;47.362;18.930;2023-11-18T14:31:04;3.08;;;1.77;;
58137;SDS011;43955;47.362;18.930;2023-11-18T14:33:32;4.55;;;1.70;;
58137;SDS011;43955;47.362;18.930;2023-11-18T14:36:00;2.12;;;1.25;;
58137;SDS011;43955;47.362;18.930;2023-11-18T14:38:34;4.97;;;1.77;;
58137;SDS011;43955;47.362;18.930;2023-11-18T14:41:04;4.68;;;1.75;;
58137;SDS011;43955;47.362;18.930;2023-11-18T14:43:32;2.83;;;1.33;;
58137;SDS011;43955;47.362;18.930;2023-11-18T14:46:01;5.25;;;2.28;;
58137;SDS011;43955;47.362;18.930;2023-11-18T14:48:31;20.70;;;18.83;;
58137;SDS011;43955;47.362;18.930;2023-11-18T14:50:58;2.42;;;1.35;;
58137;SDS011;43955;47.362;18.930;2023-11-18T14:53:27;2.47;;;1.60;;
58137;SDS011;43955;47.362;18.930;2023-11-18T14:55:55;3.72;;;1.30;;
58137;SDS011;43955;47.362;18.930;2023-11-18T14:58:22;13.02;;;6.47;;
58137;SDS011;43955;47.362;18.930;2023-11-18T15:00:49;8.65;;;5.50;;
58137;SDS011;43955;47.362;18.930;2023-11-18T15:03:16;12.10;;;2.85;;
58137;SDS011;43955;47.362;18.930;2023-11-18T15:05:44;6.78;;;3.05;;
58137;SDS011;43955;47.362;18.930;2023-11-18T15:08:12;3.70;;;1.60;;
58137;SDS011;43955;47.362;18.930;2023-11-18T15:10:39;31.05;;;12.32;;
58137;SDS011;43955;47.362;18.930;2023-11-18T15:13:09;6.22;;;2.75;;
58137;SDS011;43955;47.362;18.930;2023-11-18T15:15:42;5.50;;;2.75;;
58137;SDS011;43955;47.362;18.930;2023-11-18T15:18:16;5.00;;;2.63;;
58137;SDS011;43955;47.362;18.930;2023-11-18T15:20:48;7.25;;;1.98;;
58137;SDS011;43955;47.362;18.930;2023-11-18T15:23:16;6.10;;;2.83;;
58137;SDS011;43955;47.362;18.930;2023-11-18T15:25:44;5.60;;;2.58;;